createdAt,value
2018-04-30T00:00:44.281Z,992.50
2018-04-30T00:01:44.307Z,992.46
2018-04-30T00:02:44.292Z,992.46
2018-04-30T00:03:44.274Z,992.42
2018-04-30T00:04:44.489Z,992.28
2018-04-30T00:05:44.272Z,992.19
2018-04-30T00:06:44.270Z,992.14
2018-04-30T00:07:44.274Z,992.07
2018-04-30T00:08:44.274Z,992.08
2018-04-30T00:09:44.263Z,992.14
2018-04-30T00:10:44.270Z,992.14
2018-04-30T00:11:44.266Z,992.13
2018-04-30T00:12:44.258Z,992.14
2018-04-30T00:13:44.252Z,992.11
2018-04-30T00:14:44.250Z,992.09
2018-04-30T00:15:44.257Z,992.06
2018-04-30T00:16:44.256Z,992.07
2018-04-30T00:17:44.244Z,992.05
2018-04-30T00:18:44.251Z,992.04
2018-04-30T00:19:44.248Z,992.09
2018-04-30T00:20:44.236Z,992.08
2018-04-30T00:21:44.236Z,992.08
2018-04-30T00:22:44.231Z,992.02
2018-04-30T00:23:44.229Z,992.01
2018-04-30T00:24:44.236Z,992.07
2018-04-30T00:25:44.225Z,992.04
2018-04-30T00:26:44.222Z,991.99
2018-04-30T00:27:44.231Z,991.86
2018-04-30T00:28:44.218Z,991.81
2018-04-30T00:29:44.416Z,991.86
2018-04-30T00:30:44.213Z,991.87
2018-04-30T00:31:44.410Z,991.84
2018-04-30T00:32:44.408Z,991.77
2018-04-30T00:33:44.307Z,991.77
2018-04-30T00:34:44.428Z,991.80
2018-04-30T00:35:44.423Z,991.78
2018-04-30T00:36:44.195Z,991.84
2018-04-30T00:37:44.405Z,991.83
2018-04-30T00:38:44.194Z,991.79
2018-04-30T00:39:44.197Z,991.79
2018-04-30T00:40:44.205Z,991.74
2018-04-30T00:41:44.184Z,991.71
2018-04-30T00:42:44.191Z,991.71
2018-04-30T00:43:44.381Z,991.63
2018-04-30T00:44:44.177Z,991.64
2018-04-30T00:45:44.173Z,991.59
2018-04-30T00:46:44.169Z,991.64
2018-04-30T00:47:44.171Z,991.67
2018-04-30T00:48:44.178Z,991.69
2018-04-30T00:49:44.380Z,991.73
2018-04-30T00:50:44.193Z,991.66
2018-04-30T00:51:44.161Z,991.68
2018-04-30T00:52:44.161Z,991.66
2018-04-30T00:53:44.164Z,991.67
2018-04-30T00:54:44.150Z,991.68
2018-04-30T00:55:44.161Z,991.73
2018-04-30T00:56:44.349Z,991.81
2018-04-30T00:57:44.145Z,991.89
2018-04-30T00:58:44.343Z,992.03
2018-04-30T00:59:44.137Z,992.14
2018-04-30T01:00:44.141Z,992.24
2018-04-30T01:01:44.136Z,992.29
2018-04-30T01:02:44.143Z,992.36
2018-04-30T01:03:44.139Z,992.42
2018-04-30T01:04:44.344Z,992.52
2018-04-30T01:05:44.142Z,992.60
2018-04-30T01:06:44.134Z,992.65
2018-04-30T01:07:44.134Z,992.73
2018-04-30T01:08:44.141Z,992.75
2018-04-30T01:09:44.319Z,992.78
2018-04-30T01:10:44.121Z,992.75
2018-04-30T01:11:44.314Z,992.61
2018-04-30T01:12:44.129Z,992.49
2018-04-30T01:13:44.313Z,992.20
2018-04-30T01:14:44.313Z,991.97
2018-04-30T01:15:44.106Z,991.78
2018-04-30T01:16:44.307Z,991.67
2018-04-30T01:17:44.115Z,991.70
2018-04-30T01:18:44.111Z,991.80
2018-04-30T01:19:44.310Z,991.83
2018-04-30T01:20:44.116Z,991.90
2018-04-30T01:21:44.148Z,991.93
2018-04-30T01:22:44.101Z,991.92
2018-04-30T01:23:44.315Z,991.92
2018-04-30T01:24:44.087Z,991.82
2018-04-30T01:25:44.109Z,991.82
2018-04-30T01:26:44.096Z,991.74
2018-04-30T01:27:44.296Z,991.83
2018-04-30T01:28:44.079Z,991.87
2018-04-30T01:29:44.091Z,991.86
2018-04-30T01:30:44.077Z,991.90
2018-04-30T01:31:44.073Z,991.87
2018-04-30T01:32:44.094Z,991.90
2018-04-30T01:33:44.070Z,991.91
2018-04-30T01:34:44.081Z,991.81
2018-04-30T01:35:44.086Z,991.80
2018-04-30T01:36:44.063Z,991.78
2018-04-30T01:37:44.085Z,991.80
2018-04-30T01:38:44.278Z,991.82
2018-04-30T01:39:44.074Z,991.81
2018-04-30T01:40:44.085Z,991.88
2018-04-30T01:41:44.071Z,991.89
2018-04-30T01:42:44.053Z,991.91
2018-04-30T01:43:44.065Z,991.91
2018-04-30T01:44:44.255Z,991.91
2018-04-30T01:45:44.052Z,991.90
2018-04-30T01:46:44.064Z,991.92
2018-04-30T01:47:44.047Z,991.91
2018-04-30T01:48:44.057Z,991.92
2018-04-30T01:49:44.042Z,991.89
2018-04-30T01:50:44.043Z,991.88
2018-04-30T01:51:44.036Z,991.84
2018-04-30T01:52:44.242Z,991.83
2018-04-30T01:53:44.037Z,991.79
2018-04-30T01:54:44.037Z,991.82
2018-04-30T01:55:44.033Z,991.84
2018-04-30T01:56:44.238Z,991.84
2018-04-30T01:57:44.041Z,991.85
2018-04-30T01:58:44.031Z,991.78
2018-04-30T01:59:44.231Z,991.84
2018-04-30T02:00:44.027Z,991.90
2018-04-30T02:01:44.022Z,991.96
2018-04-30T02:02:44.024Z,991.97
2018-04-30T02:03:44.020Z,991.94
2018-04-30T02:04:44.022Z,991.92
2018-04-30T02:05:44.017Z,991.98
2018-04-30T02:06:44.042Z,992.03
2018-04-30T02:07:44.030Z,991.98
2018-04-30T02:08:44.238Z,991.97
2018-04-30T02:09:44.018Z,991.95
2018-04-30T02:10:44.022Z,991.90
2018-04-30T02:11:44.019Z,991.85
2018-04-30T02:12:44.025Z,991.88
2018-04-30T02:13:44.211Z,991.86
2018-04-30T02:14:44.022Z,991.81
2018-04-30T02:15:44.005Z,991.83
2018-04-30T02:16:44.016Z,991.81
2018-04-30T02:17:44.004Z,991.88
2018-04-30T02:18:44.017Z,991.87
2018-04-30T02:19:44.204Z,991.84
2018-04-30T02:20:43.998Z,991.80
2018-04-30T02:21:44.019Z,991.76
2018-04-30T02:22:44.006Z,991.76
2018-04-30T02:23:43.995Z,991.82
2018-04-30T02:24:44.007Z,991.80
2018-04-30T02:25:44.211Z,991.73
2018-04-30T02:26:43.992Z,991.72
2018-04-30T02:27:43.991Z,991.75
2018-04-30T02:28:44.193Z,991.73
2018-04-30T02:29:44.200Z,991.76
2018-04-30T02:30:43.990Z,991.77
2018-04-30T02:31:43.986Z,991.76
2018-04-30T02:32:44.489Z,991.81
2018-04-30T02:33:44.197Z,991.80
2018-04-30T02:34:44.188Z,991.81
2018-04-30T02:35:44.185Z,991.79
2018-04-30T02:36:43.980Z,991.79
2018-04-30T02:37:43.993Z,991.82
2018-04-30T02:38:43.977Z,991.76
2018-04-30T02:39:43.998Z,991.71
2018-04-30T02:40:43.977Z,991.69
2018-04-30T02:41:44.181Z,991.65
2018-04-30T02:42:43.976Z,991.60
2018-04-30T02:43:43.972Z,991.57
2018-04-30T02:44:43.972Z,991.57
2018-04-30T02:45:43.975Z,991.59
2018-04-30T02:46:43.972Z,991.58
2018-04-30T02:47:44.185Z,991.58
2018-04-30T02:48:44.173Z,991.57
2018-04-30T02:49:44.190Z,991.58
2018-04-30T02:50:44.182Z,991.61
2018-04-30T02:51:43.966Z,991.62
2018-04-30T02:52:43.964Z,991.62
2018-04-30T02:53:44.173Z,991.60
2018-04-30T02:54:43.963Z,991.54
2018-04-30T02:55:43.962Z,991.57
2018-04-30T02:56:43.972Z,991.64
2018-04-30T02:57:43.967Z,991.64
2018-04-30T02:58:43.969Z,991.64
2018-04-30T02:59:44.161Z,991.63
2018-04-30T03:00:43.957Z,991.58
2018-04-30T03:01:43.966Z,991.58
2018-04-30T03:02:43.957Z,991.60
2018-04-30T03:03:43.961Z,991.68
2018-04-30T03:04:44.160Z,991.77
2018-04-30T03:05:44.159Z,991.90
2018-04-30T03:06:43.954Z,991.90
2018-04-30T03:07:43.952Z,991.89
2018-04-30T03:08:43.958Z,991.88
2018-04-30T03:09:44.048Z,991.92
2018-04-30T03:10:43.967Z,991.94
2018-04-30T03:11:43.943Z,991.96
2018-04-30T03:12:43.943Z,991.95
2018-04-30T03:13:43.944Z,991.98
2018-04-30T03:14:43.953Z,991.98
2018-04-30T03:15:43.942Z,991.99
2018-04-30T03:16:43.944Z,991.99
2018-04-30T03:17:43.939Z,992.01
2018-04-30T03:18:43.938Z,992.04
2018-04-30T03:19:44.139Z,992.03
2018-04-30T03:20:43.937Z,992.01
2018-04-30T03:21:43.936Z,992.00
2018-04-30T03:22:43.933Z,992.03
2018-04-30T03:23:44.139Z,992.00
2018-04-30T03:24:44.144Z,992.05
2018-04-30T03:25:43.942Z,992.05
2018-04-30T03:26:43.932Z,992.07
2018-04-30T03:27:44.142Z,992.06
2018-04-30T03:28:43.925Z,992.14
2018-04-30T03:29:43.925Z,992.16
2018-04-30T03:30:43.929Z,992.12
2018-04-30T03:31:44.137Z,992.13
2018-04-30T03:32:43.924Z,992.15
2018-04-30T03:33:43.923Z,992.19
2018-04-30T03:34:44.130Z,992.19
2018-04-30T03:35:44.123Z,992.19
2018-04-30T03:36:43.919Z,992.16
2018-04-30T03:37:43.917Z,992.15
2018-04-30T03:38:43.918Z,992.16
2018-04-30T03:39:43.927Z,992.16
2018-04-30T03:40:43.927Z,992.16
2018-04-30T03:41:43.914Z,992.16
2018-04-30T03:42:43.923Z,992.21
2018-04-30T03:43:43.914Z,992.21
2018-04-30T03:44:43.911Z,992.23
2018-04-30T03:45:43.913Z,992.25
2018-04-30T03:46:43.913Z,992.28
2018-04-30T03:47:43.921Z,992.33
2018-04-30T03:48:43.907Z,992.36
2018-04-30T03:49:43.985Z,992.40
2018-04-30T03:50:43.918Z,992.41
2018-04-30T03:51:44.119Z,992.37
2018-04-30T03:52:43.905Z,992.33
2018-04-30T03:53:43.919Z,992.32
2018-04-30T03:54:43.912Z,992.25
2018-04-30T03:55:43.910Z,992.30
2018-04-30T03:56:43.913Z,992.27
2018-04-30T03:57:43.909Z,992.26
2018-04-30T03:58:43.900Z,992.28
2018-04-30T03:59:43.905Z,992.28
2018-04-30T04:00:43.895Z,992.33
2018-04-30T04:01:43.904Z,992.41
2018-04-30T04:02:43.908Z,992.39
2018-04-30T04:03:43.893Z,992.40
2018-04-30T04:04:43.893Z,992.43
2018-04-30T04:05:43.890Z,992.39
2018-04-30T04:06:43.916Z,992.40
2018-04-30T04:07:44.091Z,992.38
2018-04-30T04:08:43.887Z,992.41
2018-04-30T04:09:43.900Z,992.32
2018-04-30T04:10:44.090Z,992.34
2018-04-30T04:11:43.899Z,992.39
2018-04-30T04:12:43.975Z,992.41
2018-04-30T04:13:43.882Z,992.43
2018-04-30T04:14:43.898Z,992.44
2018-04-30T04:15:44.097Z,992.46
2018-04-30T04:16:43.879Z,992.49
2018-04-30T04:17:43.878Z,992.51
2018-04-30T04:18:43.890Z,992.52
2018-04-30T04:19:43.885Z,992.55
2018-04-30T04:20:43.871Z,992.64
2018-04-30T04:21:43.874Z,992.68
2018-04-30T04:22:43.872Z,992.72
2018-04-30T04:23:44.072Z,992.76
2018-04-30T04:24:44.071Z,992.79
2018-04-30T04:25:43.879Z,992.79
2018-04-30T04:26:44.068Z,992.77
2018-04-30T04:27:43.865Z,992.78
2018-04-30T04:28:43.861Z,992.76
2018-04-30T04:29:43.869Z,992.78
2018-04-30T04:30:43.881Z,992.85
2018-04-30T04:31:43.861Z,992.77
2018-04-30T04:32:43.872Z,992.84
2018-04-30T04:33:43.857Z,992.82
2018-04-30T04:34:43.868Z,992.78
2018-04-30T04:35:43.865Z,992.81
2018-04-30T04:36:43.853Z,992.77
2018-04-30T04:37:43.853Z,992.79
2018-04-30T04:38:43.856Z,992.76
2018-04-30T04:39:44.052Z,992.73
2018-04-30T04:40:43.849Z,992.75
2018-04-30T04:41:43.904Z,992.75
2018-04-30T04:42:43.846Z,992.82
2018-04-30T04:43:43.842Z,992.82
2018-04-30T04:44:43.855Z,992.74
2018-04-30T04:45:43.843Z,992.82
2018-04-30T04:46:43.841Z,992.77
2018-04-30T04:47:43.837Z,992.84
2018-04-30T04:48:44.042Z,992.77
2018-04-30T04:49:43.835Z,992.83
2018-04-30T04:50:43.839Z,992.93
2018-04-30T04:51:43.848Z,992.92
2018-04-30T04:52:43.843Z,992.98
2018-04-30T04:53:44.034Z,993.02
2018-04-30T04:54:43.830Z,993.06
2018-04-30T04:55:43.830Z,993.12
2018-04-30T04:56:44.036Z,993.11
2018-04-30T04:57:44.042Z,993.16
2018-04-30T04:58:43.835Z,993.11
2018-04-30T04:59:43.836Z,993.18
2018-04-30T05:00:44.027Z,993.20
2018-04-30T05:01:43.822Z,993.17
2018-04-30T05:02:43.821Z,993.14
2018-04-30T05:03:43.822Z,993.07
2018-04-30T05:04:43.821Z,993.12
2018-04-30T05:05:43.836Z,993.14
2018-04-30T05:06:44.031Z,993.24
2018-04-30T05:07:43.830Z,993.20
2018-04-30T05:08:43.830Z,993.28
2018-04-30T05:09:44.037Z,993.34
2018-04-30T05:10:44.016Z,993.35
2018-04-30T05:11:43.808Z,993.35
2018-04-30T05:12:43.806Z,993.45
2018-04-30T05:13:43.809Z,993.38
2018-04-30T05:14:44.020Z,993.37
2018-04-30T05:16:17.391Z,993.40
2018-04-30T05:16:43.814Z,993.40
2018-04-30T05:17:43.803Z,993.43
2018-04-30T05:18:43.821Z,993.41
2018-04-30T05:19:43.801Z,993.39
2018-04-30T05:20:43.800Z,993.36
2018-04-30T05:21:43.826Z,993.37
2018-04-30T05:22:43.796Z,993.34
2018-04-30T05:23:43.999Z,993.37
2018-04-30T05:24:43.806Z,993.33
2018-04-30T05:25:43.820Z,993.32
2018-04-30T05:26:43.825Z,993.35
2018-04-30T05:27:43.788Z,993.40
2018-04-30T05:28:43.798Z,993.46
2018-04-30T05:29:43.804Z,993.42
2018-04-30T05:30:43.784Z,993.48
2018-04-30T05:31:43.796Z,993.54
2018-04-30T05:32:43.786Z,993.57
2018-04-30T05:33:43.791Z,993.64
2018-04-30T05:34:43.790Z,993.64
2018-04-30T05:35:43.787Z,993.65
2018-04-30T05:36:43.789Z,993.61
2018-04-30T05:37:43.774Z,993.67
2018-04-30T05:38:43.772Z,993.65
2018-04-30T05:39:43.976Z,993.67
2018-04-30T05:40:43.772Z,993.68
2018-04-30T05:41:43.986Z,993.66
2018-04-30T05:42:43.984Z,993.66
2018-04-30T05:43:43.776Z,993.71
2018-04-30T05:44:43.969Z,993.69
2018-04-30T05:45:43.765Z,993.74
2018-04-30T05:46:43.765Z,993.77
2018-04-30T05:47:43.763Z,993.73
2018-04-30T05:48:43.965Z,993.74
2018-04-30T05:49:43.772Z,993.72
2018-04-30T05:50:43.769Z,993.73
2018-04-30T05:51:43.770Z,993.74
2018-04-30T05:52:43.760Z,993.77
2018-04-30T05:53:43.766Z,993.75
2018-04-30T05:54:43.757Z,993.74
2018-04-30T05:55:43.756Z,993.70
2018-04-30T05:56:43.753Z,993.69
2018-04-30T05:57:43.750Z,993.70
2018-04-30T05:58:43.968Z,993.72
2018-04-30T05:59:43.752Z,993.74
2018-04-30T06:00:43.952Z,993.69
2018-04-30T06:01:43.758Z,993.72
2018-04-30T06:02:43.747Z,993.69
2018-04-30T06:03:43.744Z,993.70
2018-04-30T06:04:43.744Z,993.67
2018-04-30T06:05:43.745Z,993.68
2018-04-30T06:06:44.038Z,993.68
2018-04-30T06:07:43.739Z,993.64
2018-04-30T06:08:43.739Z,993.74
2018-04-30T06:09:43.942Z,993.70
2018-04-30T06:10:43.740Z,993.74
2018-04-30T06:11:43.734Z,993.76
2018-04-30T06:12:43.937Z,993.82
2018-04-30T06:13:43.952Z,993.86
2018-04-30T06:14:43.735Z,993.87
2018-04-30T06:15:43.739Z,993.91
2018-04-30T06:16:43.741Z,993.95
2018-04-30T06:17:43.727Z,993.99
2018-04-30T06:18:43.933Z,994.03
2018-04-30T06:19:43.740Z,994.04
2018-04-30T06:20:43.726Z,994.04
2018-04-30T06:21:43.725Z,994.06
2018-04-30T06:22:43.734Z,994.08
2018-04-30T06:23:43.721Z,994.11
2018-04-30T06:24:43.923Z,994.07
2018-04-30T06:25:43.729Z,994.13
2018-04-30T06:26:43.785Z,994.13
2018-04-30T06:27:43.717Z,994.10
2018-04-30T06:28:43.728Z,994.15
2018-04-30T06:29:43.723Z,994.14
2018-04-30T06:30:43.713Z,994.07
2018-04-30T06:31:43.723Z,994.10
2018-04-30T06:32:43.720Z,994.10
2018-04-30T06:33:43.720Z,994.10
2018-04-30T06:34:43.720Z,994.07
2018-04-30T06:35:43.720Z,994.07
2018-04-30T06:36:43.704Z,994.11
2018-04-30T06:37:43.710Z,994.04
2018-04-30T06:38:43.909Z,994.07
2018-04-30T06:39:43.701Z,994.04
2018-04-30T06:40:43.699Z,994.06
2018-04-30T06:41:43.904Z,994.08
2018-04-30T06:42:43.711Z,994.10
2018-04-30T06:43:43.913Z,994.06
2018-04-30T06:44:43.697Z,994.08
2018-04-30T06:45:43.710Z,994.09
2018-04-30T06:46:43.708Z,994.08
2018-04-30T06:47:43.695Z,994.13
2018-04-30T06:48:43.706Z,994.06
2018-04-30T06:49:43.705Z,994.08
2018-04-30T06:50:43.901Z,994.08
2018-04-30T06:51:43.689Z,994.13
2018-04-30T06:52:43.686Z,994.12
2018-04-30T06:53:43.701Z,994.11
2018-04-30T06:54:43.689Z,994.09
2018-04-30T06:55:43.891Z,994.12
2018-04-30T06:56:43.692Z,994.14
2018-04-30T06:57:43.704Z,994.16
2018-04-30T06:58:43.695Z,994.20
2018-04-30T06:59:43.680Z,994.17
2018-04-30T07:00:43.691Z,994.15
2018-04-30T07:01:43.726Z,994.12
2018-04-30T07:02:43.695Z,994.14
2018-04-30T07:03:43.674Z,994.11
2018-04-30T07:04:43.676Z,994.21
2018-04-30T07:05:43.673Z,994.22
2018-04-30T07:06:43.673Z,994.21
2018-04-30T07:07:43.672Z,994.27
2018-04-30T07:08:43.681Z,994.33
2018-04-30T07:09:43.857Z,994.29
2018-04-30T07:10:43.680Z,994.31
2018-04-30T07:11:43.663Z,994.36
2018-04-30T07:12:43.679Z,994.37
2018-04-30T07:13:43.674Z,994.34
2018-04-30T07:14:43.663Z,994.37
2018-04-30T07:15:43.688Z,994.38
2018-04-30T07:16:43.862Z,994.34
2018-04-30T07:17:43.662Z,994.43
2018-04-30T07:18:43.862Z,994.39
2018-04-30T07:19:43.656Z,994.39
2018-04-30T07:20:43.655Z,994.42
2018-04-30T07:21:43.859Z,994.42
2018-04-30T07:22:43.664Z,994.39
2018-04-30T07:23:43.662Z,994.41
2018-04-30T07:24:43.654Z,994.39
2018-04-30T07:25:43.649Z,994.39
2018-04-30T07:26:43.649Z,994.33
2018-04-30T07:27:43.911Z,994.38
2018-04-30T07:28:43.657Z,994.36
2018-04-30T07:29:43.645Z,994.40
2018-04-30T07:30:43.658Z,994.43
2018-04-30T07:31:43.643Z,994.45
2018-04-30T07:32:43.640Z,994.50
2018-04-30T07:33:43.864Z,994.41
2018-04-30T07:34:43.843Z,994.47
2018-04-30T07:35:43.841Z,994.48
2018-04-30T07:36:43.838Z,994.50
2018-04-30T07:37:43.845Z,994.47
2018-04-30T07:38:43.835Z,994.47
2018-04-30T07:39:43.834Z,994.48
2018-04-30T07:40:43.631Z,994.48
2018-04-30T07:41:43.840Z,994.51
2018-04-30T07:42:43.859Z,994.52
2018-04-30T07:43:43.645Z,994.58
2018-04-30T07:44:43.621Z,994.63
2018-04-30T07:45:43.826Z,994.67
2018-04-30T07:46:43.630Z,994.71
2018-04-30T07:47:43.837Z,994.72
2018-04-30T07:48:43.835Z,994.77
2018-04-30T07:49:43.629Z,994.70
2018-04-30T07:50:43.616Z,994.73
2018-04-30T07:51:43.616Z,994.68
2018-04-30T07:52:43.626Z,994.66
2018-04-30T07:53:43.622Z,994.64
2018-04-30T07:54:43.612Z,994.67
2018-04-30T07:55:43.619Z,994.63
2018-04-30T07:56:43.610Z,994.66
2018-04-30T07:57:43.622Z,994.67
2018-04-30T07:58:43.631Z,994.60
2018-04-30T07:59:43.606Z,994.60
2018-04-30T08:00:43.803Z,994.62
2018-04-30T08:01:43.616Z,994.62
2018-04-30T08:02:43.816Z,994.65
2018-04-30T08:03:43.613Z,994.68
2018-04-30T08:04:43.605Z,994.64
2018-04-30T08:05:43.595Z,994.69
2018-04-30T08:06:43.807Z,994.73
2018-04-30T08:07:43.606Z,994.74
2018-04-30T08:08:43.589Z,994.77
2018-04-30T08:09:43.808Z,994.77
2018-04-30T08:10:43.590Z,994.75
2018-04-30T08:11:43.595Z,994.79
2018-04-30T08:12:43.587Z,994.81
2018-04-30T08:13:43.790Z,994.87
2018-04-30T08:14:43.597Z,994.84
2018-04-30T08:15:43.580Z,994.86
2018-04-30T08:16:43.579Z,994.88
2018-04-30T08:17:43.590Z,994.81
2018-04-30T08:18:43.594Z,994.83
2018-04-30T08:19:43.776Z,994.75
2018-04-30T08:20:43.579Z,994.79
2018-04-30T08:21:43.578Z,994.78
2018-04-30T08:22:43.581Z,994.75
2018-04-30T08:23:43.572Z,994.82
2018-04-30T08:24:43.568Z,994.80
2018-04-30T08:25:43.583Z,994.80
2018-04-30T08:26:43.588Z,994.78
2018-04-30T08:27:43.565Z,994.81
2018-04-30T08:28:43.764Z,994.88
2018-04-30T08:29:43.763Z,994.95
2018-04-30T08:30:43.559Z,995.02
2018-04-30T08:31:43.769Z,995.04
2018-04-30T08:32:43.559Z,995.08
2018-04-30T08:33:43.552Z,995.09
2018-04-30T08:34:43.562Z,995.12
2018-04-30T08:35:43.573Z,995.12
2018-04-30T08:36:43.616Z,995.15
2018-04-30T08:37:43.554Z,995.10
2018-04-30T08:38:43.565Z,995.11
2018-04-30T08:39:43.545Z,995.10
2018-04-30T08:40:43.570Z,995.12
2018-04-30T08:41:43.563Z,995.04
2018-04-30T08:42:43.556Z,995.08
2018-04-30T08:43:43.550Z,995.11
2018-04-30T08:44:43.573Z,995.11
2018-04-30T08:45:43.561Z,995.10
2018-04-30T08:46:43.550Z,995.11
2018-04-30T08:47:43.542Z,995.16
2018-04-30T08:48:43.542Z,995.15
2018-04-30T08:49:43.735Z,995.16
2018-04-30T08:50:43.736Z,995.22
2018-04-30T08:51:43.757Z,995.24
2018-04-30T08:52:43.746Z,995.28
2018-04-30T08:53:43.526Z,995.25
2018-04-30T08:54:43.536Z,995.28
2018-04-30T08:55:43.521Z,995.19
2018-04-30T08:56:43.753Z,995.24
2018-04-30T08:57:43.537Z,995.25
2018-04-30T08:58:43.721Z,995.35
2018-04-30T08:59:43.543Z,995.35
2018-04-30T09:00:43.514Z,995.32
2018-04-30T09:01:43.535Z,995.33
2018-04-30T09:02:43.539Z,995.31
2018-04-30T09:03:43.520Z,995.36
2018-04-30T09:04:43.507Z,995.35
2018-04-30T09:05:43.730Z,995.35
2018-04-30T09:06:43.709Z,995.37
2018-04-30T09:07:43.716Z,995.35
2018-04-30T09:08:43.704Z,995.33
2018-04-30T09:09:43.570Z,995.30
2018-04-30T09:10:43.506Z,995.36
2018-04-30T09:11:43.700Z,995.32
2018-04-30T09:12:43.500Z,995.36
2018-04-30T09:13:43.697Z,995.38
2018-04-30T09:14:43.492Z,995.40
2018-04-30T09:15:43.491Z,995.39
2018-04-30T09:16:43.498Z,995.41
2018-04-30T09:17:43.496Z,995.41
2018-04-30T09:18:43.485Z,995.38
2018-04-30T09:19:43.485Z,995.40
2018-04-30T09:20:43.687Z,995.46
2018-04-30T09:21:43.480Z,995.37
2018-04-30T09:22:43.493Z,995.43
2018-04-30T09:23:43.488Z,995.42
2018-04-30T09:24:43.476Z,995.42
2018-04-30T09:25:43.677Z,995.41
2018-04-30T09:26:43.489Z,995.40
2018-04-30T09:27:43.489Z,995.42
2018-04-30T09:28:43.484Z,995.42
2018-04-30T09:29:43.466Z,995.40
2018-04-30T09:30:43.463Z,995.36
2018-04-30T09:31:43.462Z,995.40
2018-04-30T09:32:43.471Z,995.45
2018-04-30T09:33:43.463Z,995.47
2018-04-30T09:34:43.472Z,995.40
2018-04-30T09:35:43.456Z,995.41
2018-04-30T09:36:43.658Z,995.40
2018-04-30T09:37:43.466Z,995.38
2018-04-30T09:38:43.452Z,995.30
2018-04-30T09:39:43.452Z,995.37
2018-04-30T09:40:43.655Z,995.34
2018-04-30T09:41:43.449Z,995.34
2018-04-30T09:42:43.651Z,995.34
2018-04-30T09:43:43.446Z,995.39
2018-04-30T09:44:43.440Z,995.34
2018-04-30T09:45:43.644Z,995.35
2018-04-30T09:46:43.441Z,995.40
2018-04-30T09:47:43.450Z,995.37
2018-04-30T09:48:43.438Z,995.37
2018-04-30T09:49:43.444Z,995.42
2018-04-30T09:50:43.431Z,995.42
2018-04-30T09:51:43.431Z,995.41
2018-04-30T09:52:43.634Z,995.37
2018-04-30T09:53:43.441Z,995.45
2018-04-30T09:54:43.642Z,995.45
2018-04-30T09:55:43.642Z,995.50
2018-04-30T09:56:43.422Z,995.52
2018-04-30T09:57:43.539Z,995.49
2018-04-30T09:58:43.447Z,995.45
2018-04-30T09:59:43.623Z,995.52
2018-04-30T10:00:43.420Z,995.47
2018-04-30T10:01:43.416Z,995.51
2018-04-30T10:02:43.416Z,995.53
2018-04-30T10:03:43.425Z,995.53
2018-04-30T10:04:43.616Z,995.52
2018-04-30T10:05:43.427Z,995.56
2018-04-30T10:06:43.421Z,995.52
2018-04-30T10:07:43.620Z,995.57
2018-04-30T10:08:43.435Z,995.52
2018-04-30T10:09:43.440Z,995.47
2018-04-30T10:10:43.417Z,995.47
2018-04-30T10:11:43.404Z,995.48
2018-04-30T10:12:43.623Z,995.45
2018-04-30T10:13:43.398Z,995.45
2018-04-30T10:14:43.402Z,995.44
2018-04-30T10:15:43.394Z,995.43
2018-04-30T10:16:43.407Z,995.37
2018-04-30T10:17:43.428Z,995.35
2018-04-30T10:18:43.400Z,995.38
2018-04-30T10:19:43.399Z,995.39
2018-04-30T10:20:43.593Z,995.39
2018-04-30T10:21:43.408Z,995.33
2018-04-30T10:22:43.400Z,995.37
2018-04-30T10:23:43.452Z,995.35
2018-04-30T10:24:43.397Z,995.36
2018-04-30T10:25:43.391Z,995.33
2018-04-30T10:26:43.379Z,995.36
2018-04-30T10:27:43.414Z,995.32
2018-04-30T10:28:43.578Z,995.30
2018-04-30T10:29:43.383Z,995.34
2018-04-30T10:30:43.384Z,995.27
2018-04-30T10:31:43.599Z,995.24
2018-04-30T10:32:43.366Z,995.33
2018-04-30T10:33:43.373Z,995.22
2018-04-30T10:34:43.394Z,995.27
2018-04-30T10:35:43.568Z,995.35
2018-04-30T10:36:43.390Z,995.26
2018-04-30T10:37:43.426Z,995.22
2018-04-30T10:38:43.363Z,995.19
2018-04-30T10:39:43.576Z,995.21
2018-04-30T10:40:43.571Z,995.24
2018-04-30T10:41:43.360Z,995.24
2018-04-30T10:42:43.362Z,995.18
2018-04-30T10:43:43.571Z,995.21
2018-04-30T10:44:43.359Z,995.15
2018-04-30T10:45:43.665Z,995.20
2018-04-30T10:46:43.346Z,995.17
2018-04-30T10:47:43.361Z,995.21
2018-04-30T10:48:43.344Z,995.20
2018-04-30T10:49:43.341Z,995.19
2018-04-30T10:50:43.352Z,995.17
2018-04-30T10:51:43.438Z,995.15
2018-04-30T10:52:43.353Z,995.18
2018-04-30T10:53:43.352Z,995.16
2018-04-30T10:54:43.551Z,995.18
2018-04-30T10:55:43.337Z,995.16
2018-04-30T10:56:43.560Z,995.15
2018-04-30T10:57:43.540Z,995.16
2018-04-30T10:58:43.345Z,995.16
2018-04-30T10:59:43.342Z,995.13
2018-04-30T11:00:43.345Z,995.11
2018-04-30T11:01:43.325Z,995.06
2018-04-30T11:02:43.609Z,995.19
2018-04-30T11:03:43.319Z,995.17
2018-04-30T11:04:43.321Z,995.12
2018-04-30T11:05:43.317Z,995.13
2018-04-30T11:06:43.539Z,995.11
2018-04-30T11:07:43.314Z,995.18
2018-04-30T11:08:43.318Z,995.19
2018-04-30T11:09:43.516Z,995.15
2018-04-30T11:10:43.314Z,995.15
2018-04-30T11:11:43.518Z,995.18
2018-04-30T11:12:43.306Z,995.18
2018-04-30T11:13:43.309Z,995.13
2018-04-30T11:14:43.306Z,995.12
2018-04-30T11:15:43.521Z,995.14
2018-04-30T11:16:43.322Z,995.17
2018-04-30T11:17:43.506Z,995.13
2018-04-30T11:18:43.308Z,995.18
2018-04-30T11:19:43.302Z,995.17
2018-04-30T11:20:43.299Z,995.16
2018-04-30T11:21:43.305Z,995.14
2018-04-30T11:22:43.331Z,995.14
2018-04-30T11:23:43.295Z,995.20
2018-04-30T11:24:43.301Z,995.13
2018-04-30T11:25:43.501Z,995.12
2018-04-30T11:26:43.284Z,995.14
2018-04-30T11:27:43.320Z,995.14
2018-04-30T11:28:43.284Z,995.14
2018-04-30T11:29:43.281Z,995.15
2018-04-30T11:30:43.487Z,995.08
2018-04-30T11:31:43.481Z,995.15
2018-04-30T11:32:43.279Z,995.06
2018-04-30T11:33:43.275Z,995.05
2018-04-30T11:34:43.488Z,994.97
2018-04-30T11:35:43.286Z,995.09
2018-04-30T11:36:43.283Z,995.04
2018-04-30T11:37:43.473Z,995.09
2018-04-30T11:38:43.478Z,995.02
2018-04-30T11:39:43.264Z,995.01
2018-04-30T11:40:43.266Z,995.00
2018-04-30T11:41:43.262Z,994.97
2018-04-30T11:42:43.261Z,994.95
2018-04-30T11:43:43.289Z,995.00
2018-04-30T11:44:43.291Z,994.96
2018-04-30T11:45:43.266Z,995.03
2018-04-30T11:46:43.463Z,994.98
2018-04-30T11:47:43.252Z,995.00
2018-04-30T11:48:43.267Z,995.01
2018-04-30T11:49:43.254Z,995.05
2018-04-30T11:50:43.251Z,995.04
2018-04-30T11:51:43.278Z,995.10
2018-04-30T11:52:43.249Z,994.96
2018-04-30T11:53:43.260Z,995.10
2018-04-30T11:54:43.462Z,995.13
2018-04-30T11:55:43.342Z,995.07
2018-04-30T11:56:43.252Z,995.15
2018-04-30T11:57:43.255Z,995.15
2018-04-30T11:58:43.307Z,995.05
2018-04-30T11:59:43.239Z,995.09
2018-04-30T12:00:43.235Z,995.07
2018-04-30T12:01:43.237Z,995.25
2018-04-30T12:02:43.246Z,995.20
2018-04-30T12:03:43.249Z,995.22
2018-04-30T12:04:43.245Z,995.26
2018-04-30T12:05:43.242Z,995.25
2018-04-30T12:06:43.229Z,995.29
2018-04-30T12:07:43.231Z,995.33
2018-04-30T12:08:43.237Z,995.33
2018-04-30T12:09:43.434Z,995.19
2018-04-30T12:10:43.235Z,995.41
2018-04-30T12:11:43.222Z,995.41
2018-04-30T12:12:43.221Z,995.45
2018-04-30T12:13:43.219Z,995.54
2018-04-30T12:14:43.232Z,995.50
2018-04-30T12:15:43.227Z,995.57
2018-04-30T12:16:43.226Z,995.63
2018-04-30T12:17:43.215Z,995.63
2018-04-30T12:18:43.422Z,995.70
2018-04-30T12:19:43.242Z,995.72
2018-04-30T12:20:43.216Z,995.69
2018-04-30T12:21:43.223Z,995.71
2018-04-30T12:22:43.213Z,995.68
2018-04-30T12:23:43.206Z,995.75
2018-04-30T12:24:43.222Z,995.63
2018-04-30T12:25:43.206Z,995.75
2018-04-30T12:26:43.203Z,995.73
2018-04-30T12:27:43.213Z,995.67
2018-04-30T12:28:43.226Z,995.62